sensor_id;sensor_type;location;lat;lon;timestamp;pressure;altitude;pressure_sealevel;temperature;humidity
15998;BME280;8103;51.340;12.326;2023-01-19T00:00:54;99041.34;;;-1.52;84.79
15998;BME280;8103;51.340;12.326;2023-01-19T00:03:20;99033.44;;;-1.52;84.39
15998;BME280;8103;51.340;12.326;2023-01-19T00:05:48;99029.84;;;-1.51;85.28
15998;BME280;8103;51.340;12.326;2023-01-19T00:08:15;99035.88;;;-1.51;84.52
15998;BME280;8103;51.340;12.326;2023-01-19T00:10:47;99036.91;;;-1.45;84.72
15998;BME280;8103;51.340;12.326;2023-01-19T00:13:16;99041.09;;;-1.38;84.25
15998;BME280;8103;51.340;12.326;2023-01-19T00:15:44;99038.28;;;-1.36;84.21
15998;BME280;8103;51.340;12.326;2023-01-19T00:18:11;99044.34;;;-1.36;84.09
15998;BME280;8103;51.340;12.326;2023-01-19T00:20:39;99041.09;;;-1.38;84.32
15998;BME280;8103;51.340;12.326;2023-01-19T00:23:09;99045.16;;;-1.35;84.47
15998;BME280;8103;51.340;12.326;2023-01-19T00:25:36;99044.75;;;-1.32;84.05
15998;BME280;8103;51.340;12.326;2023-01-19T00:28:14;99053.63;;;-1.33;84.51
15998;BME280;8103;51.340;12.326;2023-01-19T00:30:43;99052.81;;;-1.27;84.64
15998;BME280;8103;51.340;12.326;2023-01-19T00:33:11;99058.09;;;-1.27;84.49
15998;BME280;8103;51.340;12.326;2023-01-19T00:35:41;99054.66;;;-1.28;85.27
15998;BME280;8103;51.340;12.326;2023-01-19T00:38:10;99064.34;;;-1.28;84.79
15998;BME280;8103;51.340;12.326;2023-01-19T00:40:37;99058.91;;;-1.27;84.63
15998;BME280;8103;51.340;12.326;2023-01-19T00:43:04;99065.97;;;-1.27;84.91
15998;BME280;8103;51.340;12.326;2023-01-19T00:45:34;99073.06;;;-1.28;85.27
15998;BME280;8103;51.340;12.326;2023-01-19T00:48:01;99068.78;;;-1.29;85.15
15998;BME280;8103;51.340;12.326;2023-01-19T00:50:31;99065.56;;;-1.24;85.46
15998;BME280;8103;51.340;12.326;2023-01-19T00:52:59;99078.69;;;-1.24;84.61
15998;BME280;8103;51.340;12.326;2023-01-19T00:55:28;99078.69;;;-1.24;84.65
15998;BME280;8103;51.340;12.326;2023-01-19T00:57:56;99077.28;;;-1.33;85.22
15998;BME280;8103;51.340;12.326;2023-01-19T01:00:23;99084.78;;;-1.37;85.23
15998;BME280;8103;51.340;12.326;2023-01-19T01:02:52;99081.16;;;-1.42;85.17
15998;BME280;8103;51.340;12.326;2023-01-19T01:05:22;99087.63;;;-1.51;86.28
15998;BME280;8103;51.340;12.326;2023-01-19T01:07:49;99078.34;;;-1.60;86.07
15998;BME280;8103;51.340;12.326;2023-01-19T01:10:24;99074.50;;;-1.64;86.46
15998;BME280;8103;51.340;12.326;2023-01-19T01:12:52;99081.13;;;-1.68;85.77
15998;BME280;8103;51.340;12.326;2023-01-19T01:15:21;99081.75;;;-1.73;85.90
15998;BME280;8103;51.340;12.326;2023-01-19T01:17:48;99082.34;;;-1.77;85.90
15998;BME280;8103;51.340;12.326;2023-01-19T01:20:26;99083.97;;;-1.83;85.97
15998;BME280;8103;51.340;12.326;2023-01-19T01:22:54;99088.00;;;-1.87;86.35
15998;BME280;8103;51.340;12.326;2023-01-19T01:25:24;99090.44;;;-1.85;85.63
15998;BME280;8103;51.340;12.326;2023-01-19T01:27:53;99092.84;;;-1.90;86.13
15998;BME280;8103;51.340;12.326;2023-01-19T01:30:21;99088.81;;;-1.86;85.86
15998;BME280;8103;51.340;12.326;2023-01-19T01:32:48;99093.69;;;-1.83;85.74
15998;BME280;8103;51.340;12.326;2023-01-19T01:35:15;99096.09;;;-1.82;86.01
15998;BME280;8103;51.340;12.326;2023-01-19T01:37:43;99094.88;;;-1.79;85.86
15998;BME280;8103;51.340;12.326;2023-01-19T01:40:14;99097.50;;;-1.79;85.94
15998;BME280;8103;51.340;12.326;2023-01-19T01:42:42;99099.94;;;-1.78;86.04
15998;BME280;8103;51.340;12.326;2023-01-19T01:48:15;99094.88;;;-1.79;85.53
15998;BME280;8103;51.340;12.326;2023-01-19T01:50:51;99091.63;;;-1.81;85.87
15998;BME280;8103;51.340;12.326;2023-01-19T01:53:41;99098.31;;;-1.85;85.11
15998;BME280;8103;51.340;12.326;2023-01-19T01:56:18;99094.66;;;-1.91;85.54
15998;BME280;8103;51.340;12.326;2023-01-19T01:58:47;99097.09;;;-1.89;86.13
15998;BME280;8103;51.340;12.326;2023-01-19T02:01:15;99093.84;;;-1.91;85.76
15998;BME280;8103;51.340;12.326;2023-01-19T02:04:00;99089.41;;;-1.97;85.24
15998;BME280;8103;51.340;12.326;2023-01-19T02:06:27;99094.06;;;-1.99;85.18
15998;BME280;8103;51.340;12.326;2023-01-19T02:09:01;99100.09;;;-1.99;85.31
15998;BME280;8103;51.340;12.326;2023-01-19T02:11:49;99103.34;;;-1.97;85.02
15998;BME280;8103;51.340;12.326;2023-01-19T02:14:35;99101.94;;;-1.99;84.70
15998;BME280;8103;51.340;12.326;2023-01-19T02:17:05;99103.31;;;-2.10;84.72
15998;BME280;8103;51.340;12.326;2023-01-19T02:19:42;99116.28;;;-1.82;83.60
15998;BME280;8103;51.340;12.326;2023-01-19T02:22:19;99112.25;;;-1.78;83.45
15998;BME280;8103;51.340;12.326;2023-01-19T02:24:50;99111.22;;;-1.77;83.30
15998;BME280;8103;51.340;12.326;2023-01-19T02:27:18;99105.38;;;-1.79;83.75
15998;BME280;8103;51.340;12.326;2023-01-19T02:29:45;99114.69;;;-1.77;83.40
15998;BME280;8103;51.340;12.326;2023-01-19T02:32:12;99109.41;;;-1.77;82.85
15998;BME280;8103;51.340;12.326;2023-01-19T02:34:39;99107.81;;;-1.78;83.49
15998;BME280;8103;51.340;12.326;2023-01-19T02:37:11;99114.69;;;-1.77;82.85
15998;BME280;8103;51.340;12.326;2023-01-19T02:39:51;99112.25;;;-1.78;82.90
15998;BME280;8103;51.340;12.326;2023-01-19T02:44:55;99102.13;;;-1.81;82.46
15998;BME280;8103;51.340;12.326;2023-01-19T02:47:23;99103.16;;;-1.82;82.67
15998;BME280;8103;51.340;12.326;2023-01-19T02:49:58;99092.66;;;-1.82;82.14
15998;BME280;8103;51.340;12.326;2023-01-19T02:52:26;99097.72;;;-1.81;81.88
15998;BME280;8103;51.340;12.326;2023-01-19T02:55:15;99093.28;;;-1.80;81.95
15998;BME280;8103;51.340;12.326;2023-01-19T02:58:01;99089.22;;;-1.83;82.21
15998;BME280;8103;51.340;12.326;2023-01-19T03:07:01;99093.47;;;-1.82;81.32
15998;BME280;8103;51.340;12.326;2023-01-19T03:09:52;99086.78;;;-1.84;80.80
15998;BME280;8103;51.340;12.326;2023-01-19T03:12:58;99091.84;;;-1.83;81.22
15998;BME280;8103;51.340;12.326;2023-01-19T03:16:00;99085.78;;;-1.83;81.45
15998;BME280;8103;51.340;12.326;2023-01-19T03:18:35;99088.41;;;-1.77;81.33
15998;BME280;8103;51.340;12.326;2023-01-19T03:21:05;99093.66;;;-1.77;82.00
15998;BME280;8103;51.340;12.326;2023-01-19T03:23:37;99088.22;;;-1.75;82.17
15998;BME280;8103;51.340;12.326;2023-01-19T03:26:10;99099.75;;;-1.76;82.11
15998;BME280;8103;51.340;12.326;2023-01-19T03:28:43;99095.91;;;-1.80;82.74
15998;BME280;8103;51.340;12.326;2023-01-19T03:31:25;99098.53;;;-1.80;82.39
15998;BME280;8103;51.340;12.326;2023-01-19T03:34:05;99105.16;;;-1.84;81.77
15998;BME280;8103;51.340;12.326;2023-01-19T03:36:39;99106.81;;;-1.83;82.31
15998;BME280;8103;51.340;12.326;2023-01-19T03:39:11;99105.38;;;-1.86;82.05
15998;BME280;8103;51.340;12.326;2023-01-19T03:41:41;99108.19;;;-1.87;82.28
15998;BME280;8103;51.340;12.326;2023-01-19T03:44:10;99104.16;;;-1.90;81.70
15998;BME280;8103;51.340;12.326;2023-01-19T03:46:38;99105.56;;;-1.87;81.02
15998;BME280;8103;51.340;12.326;2023-01-19T03:49:07;99108.19;;;-1.87;80.97
15998;BME280;8103;51.340;12.326;2023-01-19T03:51:36;99112.22;;;-1.91;80.71
15998;BME280;8103;51.340;12.326;2023-01-19T03:54:06;99114.66;;;-1.90;80.30
15998;BME280;8103;51.340;12.326;2023-01-19T03:56:33;99110.63;;;-1.92;79.81
15998;BME280;8103;51.340;12.326;2023-01-19T03:59:00;99113.84;;;-1.90;80.19
15998;BME280;8103;51.340;12.326;2023-01-19T04:01:27;99124.75;;;-1.87;80.41
15998;BME280;8103;51.340;12.326;2023-01-19T04:03:54;99121.72;;;-1.90;79.62
15998;BME280;8103;51.340;12.326;2023-01-19T04:06:21;99123.13;;;-1.94;79.40
15998;BME280;8103;51.340;12.326;2023-01-19T04:08:50;99119.47;;;-1.93;79.44
15998;BME280;8103;51.340;12.326;2023-01-19T04:11:17;99131.59;;;-1.99;79.94
15998;BME280;8103;51.340;12.326;2023-01-19T04:13:44;99130.38;;;-2.03;79.71
15998;BME280;8103;51.340;12.326;2023-01-19T04:16:11;99130.78;;;-2.06;79.60
15998;BME280;8103;51.340;12.326;2023-01-19T04:18:39;99135.19;;;-2.06;79.68
15998;BME280;8103;51.340;12.326;2023-01-19T04:21:07;99136.41;;;-2.09;79.82
15998;BME280;8103;51.340;12.326;2023-01-19T04:23:34;99137.63;;;-2.11;79.37
15998;BME280;8103;51.340;12.326;2023-01-19T04:26:07;99140.84;;;-2.09;80.01
15998;BME280;8103;51.340;12.326;2023-01-19T04:28:35;99142.88;;;-2.11;80.37
15998;BME280;8103;51.340;12.326;2023-01-19T04:31:04;99140.84;;;-2.09;79.57
15998;BME280;8103;51.340;12.326;2023-01-19T04:33:32;99134.00;;;-2.10;80.18
15998;BME280;8103;51.340;12.326;2023-01-19T04:35:59;99140.47;;;-2.06;80.47
15998;BME280;8103;51.340;12.326;2023-01-19T04:38:26;99136.41;;;-2.09;80.75
15998;BME280;8103;51.340;12.326;2023-01-19T04:40:54;99132.56;;;-2.06;81.28
15998;BME280;8103;51.340;12.326;2023-01-19T04:43:22;99147.75;;;-2.02;80.76
15998;BME280;8103;51.340;12.326;2023-01-19T04:45:49;99140.06;;;-2.10;81.18
15998;BME280;8103;51.340;12.326;2023-01-19T04:48:17;99141.03;;;-2.11;81.21
15998;BME280;8103;51.340;12.326;2023-01-19T04:50:45;99135.19;;;-2.06;81.28
15998;BME280;8103;51.340;12.326;2023-01-19T04:53:12;99143.66;;;-2.11;81.12
15998;BME280;8103;51.340;12.326;2023-01-19T04:55:39;99150.75;;;-2.11;81.35
15998;BME280;8103;51.340;12.326;2023-01-19T04:58:06;99149.31;;;-2.14;81.98
15998;BME280;8103;51.340;12.326;2023-01-19T05:00:33;99149.13;;;-2.13;81.38
15998;BME280;8103;51.340;12.326;2023-01-19T05:03:00;99144.06;;;-2.14;82.27
15998;BME280;8103;51.340;12.326;2023-01-19T05:05:28;99143.28;;;-2.14;82.58
15998;BME280;8103;51.340;12.326;2023-01-19T05:07:55;99143.28;;;-2.14;81.96
15998;BME280;8103;51.340;12.326;2023-01-19T05:10:23;99144.50;;;-2.10;81.80
15998;BME280;8103;51.340;12.326;2023-01-19T05:12:50;99153.38;;;-2.11;82.69
15998;BME280;8103;51.340;12.326;2023-01-19T05:15:17;99153.59;;;-2.06;82.72
15998;BME280;8103;51.340;12.326;2023-01-19T05:17:45;99146.56;;;-1.99;82.47
15998;BME280;8103;51.340;12.326;2023-01-19T05:20:12;99146.56;;;-1.99;82.18
15998;BME280;8103;51.340;12.326;2023-01-19T05:22:47;99144.91;;;-2.00;82.75
15998;BME280;8103;51.340;12.326;2023-01-19T05:25:16;99148.56;;;-2.01;82.55
15998;BME280;8103;51.340;12.326;2023-01-19T05:27:44;99148.94;;;-2.04;82.25
15998;BME280;8103;51.340;12.326;2023-01-19T05:30:12;99151.56;;;-2.04;82.36
15998;BME280;8103;51.340;12.326;2023-01-19T05:32:39;99152.59;;;-2.05;82.74
15998;BME280;8103;51.340;12.326;2023-01-19T05:35:08;99154.19;;;-2.04;82.70
15998;BME280;8103;51.340;12.326;2023-01-19T05:37:35;99155.63;;;-2.08;83.19
15998;BME280;8103;51.340;12.326;2023-01-19T05:40:02;99162.28;;;-2.06;82.59
15998;BME280;8103;51.340;12.326;2023-01-19T05:42:29;99165.72;;;-2.05;83.21
15998;BME280;8103;51.340;12.326;2023-01-19T05:44:58;99159.66;;;-2.06;83.48
15998;BME280;8103;51.340;12.326;2023-01-19T05:47:25;99160.28;;;-2.04;83.36
15998;BME280;8103;51.340;12.326;2023-01-19T05:49:52;99161.69;;;-2.01;82.97
15998;BME280;8103;51.340;12.326;2023-01-19T05:52:18;99162.31;;;-1.99;83.12
15998;BME280;8103;51.340;12.326;2023-01-19T05:54:45;99163.53;;;-1.95;82.77
15998;BME280;8103;51.340;12.326;2023-01-19T05:57:13;99158.28;;;-1.95;82.62
15998;BME280;8103;51.340;12.326;2023-01-19T05:59:42;99149.78;;;-1.97;82.88
15998;BME280;8103;51.340;12.326;2023-01-19T06:02:09;99148.75;;;-1.96;83.45
15998;BME280;8103;51.340;12.326;2023-01-19T06:04:36;99147.34;;;-1.99;83.06
15998;BME280;8103;51.340;12.326;2023-01-19T06:07:04;99156.63;;;-1.96;83.31
15998;BME280;8103;51.340;12.326;2023-01-19T06:09:32;99159.88;;;-1.94;83.94
15998;BME280;8103;51.340;12.326;2023-01-19T06:11:59;99156.44;;;-1.95;83.68
15998;BME280;8103;51.340;12.326;2023-01-19T06:14:26;99154.25;;;-1.91;83.80
15998;BME280;8103;51.340;12.326;2023-01-19T06:16:53;99168.38;;;-1.92;84.18
15998;BME280;8103;51.340;12.326;2023-01-19T06:19:21;99169.59;;;-1.88;83.70
15998;BME280;8103;51.340;12.326;2023-01-19T06:21:49;99164.34;;;-1.88;83.40
15998;BME280;8103;51.340;12.326;2023-01-19T06:24:18;99168.56;;;-1.94;83.62
15998;BME280;8103;51.340;12.326;2023-01-19T06:26:45;99172.00;;;-1.93;83.63
15998;BME280;8103;51.340;12.326;2023-01-19T06:29:15;99172.38;;;-1.96;83.61
15998;BME280;8103;51.340;12.326;2023-01-19T06:31:42;99180.50;;;-1.98;84.00
15998;BME280;8103;51.340;12.326;2023-01-19T06:34:09;99180.88;;;-2.01;83.47
15998;BME280;8103;51.340;12.326;2023-01-19T06:36:36;99174.81;;;-2.01;83.76
15998;BME280;8103;51.340;12.326;2023-01-19T06:39:03;99176.41;;;-2.00;83.73
15998;BME280;8103;51.340;12.326;2023-01-19T06:41:33;99169.38;;;-2.00;83.82
15998;BME280;8103;51.340;12.326;2023-01-19T06:44:00;99161.88;;;-2.03;84.31
15998;BME280;8103;51.340;12.326;2023-01-19T06:46:28;99173.59;;;-1.99;84.65
15998;BME280;8103;51.340;12.326;2023-01-19T06:48:55;99174.63;;;-1.93;84.06
15998;BME280;8103;51.340;12.326;2023-01-19T06:51:23;99173.25;;;-1.89;83.70
15998;BME280;8103;51.340;12.326;2023-01-19T06:53:50;99179.69;;;-1.85;83.87
15998;BME280;8103;51.340;12.326;2023-01-19T06:56:16;99176.06;;;-1.84;84.37
15998;BME280;8103;51.340;12.326;2023-01-19T06:58:46;99168.81;;;-1.82;83.89
15998;BME280;8103;51.340;12.326;2023-01-19T07:01:13;99169.44;;;-1.80;84.47
15998;BME280;8103;51.340;12.326;2023-01-19T07:03:40;99171.22;;;-1.81;83.77
15998;BME280;8103;51.340;12.326;2023-01-19T07:06:07;99174.25;;;-1.77;84.09
15998;BME280;8103;51.340;12.326;2023-01-19T07:08:36;99173.25;;;-1.76;84.24
15998;BME280;8103;51.340;12.326;2023-01-19T07:11:06;99164.38;;;-1.75;84.59
15998;BME280;8103;51.340;12.326;2023-01-19T07:13:48;99175.28;;;-1.78;84.04
15998;BME280;8103;51.340;12.326;2023-01-19T07:16:17;99176.88;;;-1.77;84.32
15998;BME280;8103;51.340;12.326;2023-01-19T07:18:47;99184.38;;;-1.74;84.61
15998;BME280;8103;51.340;12.326;2023-01-19T07:21:14;99183.78;;;-1.76;84.63
15998;BME280;8103;51.340;12.326;2023-01-19T07:23:43;99197.50;;;-1.74;84.27
15998;BME280;8103;51.340;12.326;2023-01-19T07:26:13;99200.75;;;-1.72;84.52
15998;BME280;8103;51.340;12.326;2023-01-19T07:28:40;99210.03;;;-1.76;84.21
15998;BME280;8103;51.340;12.326;2023-01-19T07:31:07;99211.66;;;-1.75;84.35
15998;BME280;8103;51.340;12.326;2023-01-19T07:33:35;99204.59;;;-1.68;83.91
15998;BME280;8103;51.340;12.326;2023-01-19T07:36:02;99212.06;;;-1.65;83.88
15998;BME280;8103;51.340;12.326;2023-01-19T07:38:29;99220.19;;;-1.60;84.63
15998;BME280;8103;51.340;12.326;2023-01-19T07:41:03;99222.19;;;-1.62;84.42
15998;BME280;8103;51.340;12.326;2023-01-19T07:43:32;99220.56;;;-1.63;84.09
15998;BME280;8103;51.340;12.326;2023-01-19T07:46:02;99215.31;;;-1.63;84.84
15998;BME280;8103;51.340;12.326;2023-01-19T07:48:30;99228.06;;;-1.60;84.30
15998;BME280;8103;51.340;12.326;2023-01-19T07:51:01;99227.03;;;-1.59;83.94
15998;BME280;8103;51.340;12.326;2023-01-19T07:53:31;99224.63;;;-1.54;84.00
15998;BME280;8103;51.340;12.326;2023-01-19T07:55:58;99232.72;;;-1.49;83.75
15998;BME280;8103;51.340;12.326;2023-01-19T07:58:25;99230.53;;;-1.39;84.09
15998;BME280;8103;51.340;12.326;2023-01-19T08:00:52;99228.31;;;-1.29;83.89
15998;BME280;8103;51.340;12.326;2023-01-19T08:03:19;99228.53;;;-1.24;83.40
15998;BME280;8103;51.340;12.326;2023-01-19T08:05:51;99230.97;;;-1.16;83.44
15998;BME280;8103;51.340;12.326;2023-01-19T08:08:19;99237.03;;;-1.09;83.45
15998;BME280;8103;51.340;12.326;2023-01-19T08:10:50;99229.38;;;-1.04;82.55
15998;BME280;8103;51.340;12.326;2023-01-19T08:13:17;99236.84;;;-1.08;82.75
15998;BME280;8103;51.340;12.326;2023-01-19T08:15:48;99238.44;;;-1.07;83.12
15998;BME280;8103;51.340;12.326;2023-01-19T08:18:14;99235.59;;;-1.05;82.78
15998;BME280;8103;51.340;12.326;2023-01-19T08:20:43;99242.50;;;-1.04;82.05
15998;BME280;8103;51.340;12.326;2023-01-19T08:23:10;99242.31;;;-1.03;82.31
15998;BME280;8103;51.340;12.326;2023-01-19T08:25:41;99241.69;;;-0.98;82.42
15998;BME280;8103;51.340;12.326;2023-01-19T08:28:13;99250.59;;;-0.93;82.25
15998;BME280;8103;51.340;12.326;2023-01-19T08:30:40;99254.22;;;-0.94;81.71
15998;BME280;8103;51.340;12.326;2023-01-19T08:33:11;99254.63;;;-0.90;82.25
15998;BME280;8103;51.340;12.326;2023-01-19T08:35:48;99239.06;;;-0.85;82.23
15998;BME280;8103;51.340;12.326;2023-01-19T08:38:16;99240.28;;;-0.81;82.04
15998;BME280;8103;51.340;12.326;2023-01-19T08:40:43;99232.78;;;-0.78;81.52
15998;BME280;8103;51.340;12.326;2023-01-19T08:43:14;99240.47;;;-0.70;81.99
15998;BME280;8103;51.340;12.326;2023-01-19T08:45:48;99241.69;;;-0.59;81.31
15998;BME280;8103;51.340;12.326;2023-01-19T08:48:20;99239.81;;;-0.39;80.87
15998;BME280;8103;51.340;12.326;2023-01-19T08:50:51;99243.84;;;-0.24;80.27
15998;BME280;8103;51.340;12.326;2023-01-19T08:53:20;99237.69;;;0.46;81.13
15998;BME280;8103;51.340;12.326;2023-01-19T08:55:53;99237.88;;;2.28;75.59
15998;BME280;8103;51.340;12.326;2023-01-19T08:58:23;99242.47;;;3.44;68.53
15998;BME280;8103;51.340;12.326;2023-01-19T09:00:50;99245.31;;;4.12;63.75
15998;BME280;8103;51.340;12.326;2023-01-19T09:03:18;99239.00;;;5.14;60.45
15998;BME280;8103;51.340;12.326;2023-01-19T09:05:47;99242.09;;;5.93;56.72
15998;BME280;8103;51.340;12.326;2023-01-19T09:08:15;99256.38;;;6.25;54.97
15998;BME280;8103;51.340;12.326;2023-01-19T09:10:48;99252.03;;;6.63;54.09
15998;BME280;8103;51.340;12.326;2023-01-19T09:13:19;99259.63;;;7.02;52.88
15998;BME280;8103;51.340;12.326;2023-01-19T09:15:46;99262.28;;;7.29;52.02
15998;BME280;8103;51.340;12.326;2023-01-19T09:18:17;99258.00;;;7.64;50.82
15998;BME280;8103;51.340;12.326;2023-01-19T09:20:46;99258.16;;;7.84;50.05
15998;BME280;8103;51.340;12.326;2023-01-19T09:23:17;99249.59;;;7.82;48.90
15998;BME280;8103;51.340;12.326;2023-01-19T09:25:46;99254.41;;;8.22;48.72
15998;BME280;8103;51.340;12.326;2023-01-19T09:28:15;99253.75;;;8.61;47.76
15998;BME280;8103;51.340;12.326;2023-01-19T09:30:43;99248.25;;;9.18;46.02
15998;BME280;8103;51.340;12.326;2023-01-19T09:33:15;99253.06;;;9.56;45.78
15998;BME280;8103;51.340;12.326;2023-01-19T09:35:45;99253.59;;;9.68;44.59
15998;BME280;8103;51.340;12.326;2023-01-19T09:38:14;99245.84;;;9.67;44.75
15998;BME280;8103;51.340;12.326;2023-01-19T09:40:50;99248.47;;;9.92;44.25
15998;BME280;8103;51.340;12.326;2023-01-19T09:46:37;99252.81;;;10.66;41.28
15998;BME280;8103;51.340;12.326;2023-01-19T09:49:25;99251.31;;;10.40;42.40
15998;BME280;8103;51.340;12.326;2023-01-19T09:51:56;99247.78;;;10.99;41.92
15998;BME280;8103;51.340;12.326;2023-01-19T09:54:53;99251.50;;;11.08;41.10
15998;BME280;8103;51.340;12.326;2023-01-19T09:57:22;99235.72;;;11.01;41.33
15998;BME280;8103;51.340;12.326;2023-01-19T09:59:50;99241.97;;;11.25;40.71
15998;BME280;8103;51.340;12.326;2023-01-19T10:02:39;99248.66;;;11.66;39.61
15998;BME280;8103;51.340;12.326;2023-01-19T10:08:17;99243.97;;;8.97;45.69
15998;BME280;8103;51.340;12.326;2023-01-19T10:10:52;99241.31;;;9.22;45.18
15998;BME280;8103;51.340;12.326;2023-01-19T10:16:35;99217.63;;;10.19;43.41
15998;BME280;8103;51.340;12.326;2023-01-19T10:19:24;99224.78;;;11.65;40.30
15998;BME280;8103;51.340;12.326;2023-01-19T10:21:59;99209.84;;;11.49;40.16
15998;BME280;8103;51.340;12.326;2023-01-19T10:24:39;99220.94;;;11.99;39.31
15998;BME280;8103;51.340;12.326;2023-01-19T10:27:23;99218.72;;;12.30;38.90
15998;BME280;8103;51.340;12.326;2023-01-19T10:29:52;99219.44;;;12.12;38.90
15998;BME280;8103;51.340;12.326;2023-01-19T10:32:26;99220.84;;;11.19;40.05
15998;BME280;8103;51.340;12.326;2023-01-19T10:34:53;99214.00;;;9.05;44.84
15998;BME280;8103;51.340;12.326;2023-01-19T10:37:33;99224.72;;;7.30;48.65
15998;BME280;8103;51.340;12.326;2023-01-19T10:42:40;99214.78;;;5.10;55.43
15998;BME280;8103;51.340;12.326;2023-01-19T10:45:19;99211.81;;;4.34;59.72
15998;BME280;8103;51.340;12.326;2023-01-19T10:47:48;99232.53;;;3.86;61.80
15998;BME280;8103;51.340;12.326;2023-01-19T10:50:29;99223.44;;;3.36;64.11
15998;BME280;8103;51.340;12.326;2023-01-19T10:53:02;99222.53;;;3.19;65.73
15998;BME280;8103;51.340;12.326;2023-01-19T10:55:40;99225.59;;;2.93;66.80
15998;BME280;8103;51.340;12.326;2023-01-19T10:58:29;99229.34;;;2.74;67.72
15998;BME280;8103;51.340;12.326;2023-01-19T11:01:19;99224.03;;;2.74;68.79
15998;BME280;8103;51.340;12.326;2023-01-19T11:03:49;99222.53;;;2.66;68.45
15998;BME280;8103;51.340;12.326;2023-01-19T11:06:25;99219.66;;;2.68;68.76
15998;BME280;8103;51.340;12.326;2023-01-19T11:09:14;99226.69;;;2.74;69.14
15998;BME280;8103;51.340;12.326;2023-01-19T11:11:51;99224.03;;;2.74;69.75
15998;BME280;8103;51.340;12.326;2023-01-19T11:14:23;99228.88;;;2.77;70.31
15998;BME280;8103;51.340;12.326;2023-01-19T11:16:56;99222.44;;;2.73;69.94
15998;BME280;8103;51.340;12.326;2023-01-19T11:19:28;99223.34;;;2.67;70.65
15998;BME280;8103;51.340;12.326;2023-01-19T11:22:17;99224.50;;;2.71;71.21
15998;BME280;8103;51.340;12.326;2023-01-19T11:24:48;99213.91;;;2.71;70.95
15998;BME280;8103;51.340;12.326;2023-01-19T11:27:19;99213.34;;;2.80;70.96
15998;BME280;8103;51.340;12.326;2023-01-19T11:30:36;99217.94;;;2.73;70.92
15998;BME280;8103;51.340;12.326;2023-01-19T11:32:38;99218.75;;;2.74;70.34
15998;BME280;8103;51.340;12.326;2023-01-19T11:38:24;99228.31;;;2.86;70.66
15998;BME280;8103;51.340;12.326;2023-01-19T11:40:58;99224.22;;;2.90;70.37
15998;BME280;8103;51.340;12.326;2023-01-19T11:43:29;99221.19;;;2.87;70.54
15998;BME280;8103;51.340;12.326;2023-01-19T11:46:15;99219.00;;;2.84;71.19
15998;BME280;8103;51.340;12.326;2023-01-19T11:48:54;99203.13;;;2.84;70.95
15998;BME280;8103;51.340;12.326;2023-01-19T11:51:54;99198.66;;;2.84;71.26
15998;BME280;8103;51.340;12.326;2023-01-19T11:54:28;99202.69;;;2.87;71.82
15998;BME280;8103;51.340;12.326;2023-01-19T11:57:00;99194.44;;;2.95;71.45
15998;BME280;8103;51.340;12.326;2023-01-19T11:59:28;99192.34;;;2.97;70.32
15998;BME280;8103;51.340;12.326;2023-01-19T12:01:59;99191.78;;;2.95;70.91
15998;BME280;8103;51.340;12.326;2023-01-19T12:04:33;99197.19;;;3.00;71.07
15998;BME280;8103;51.340;12.326;2023-01-19T12:07:09;99198.22;;;2.99;70.65
15998;BME280;8103;51.340;12.326;2023-01-19T12:09:52;99203.06;;;3.02;70.50
15998;BME280;8103;51.340;12.326;2023-01-19T12:12:30;99203.28;;;3.00;70.86
15998;BME280;8103;51.340;12.326;2023-01-19T12:15:22;99204.78;;;3.08;70.25
15998;BME280;8103;51.340;12.326;2023-01-19T12:17:57;99202.72;;;3.10;70.11
15998;BME280;8103;51.340;12.326;2023-01-19T12:20:35;99204.69;;;3.14;70.06
15998;BME280;8103;51.340;12.326;2023-01-19T12:23:16;99204.56;;;3.21;69.81
15998;BME280;8103;51.340;12.326;2023-01-19T12:26:36;99196.88;;;3.19;70.35
15998;BME280;8103;51.340;12.326;2023-01-19T12:29:16;99188.00;;;3.14;70.39
15998;BME280;8103;51.340;12.326;2023-01-19T12:31:44;99203.88;;;3.14;69.96
15998;BME280;8103;51.340;12.326;2023-01-19T12:34:28;99198.09;;;3.17;70.86
15998;BME280;8103;51.340;12.326;2023-01-19T12:37:06;99194.53;;;3.23;69.98
15998;BME280;8103;51.340;12.326;2023-01-19T12:39:55;99211.16;;;3.30;70.29
15998;BME280;8103;51.340;12.326;2023-01-19T12:42:26;99209.41;;;3.24;70.42
15998;BME280;8103;51.340;12.326;2023-01-19T12:45:31;99214.94;;;3.34;69.67
15998;BME280;8103;51.340;12.326;2023-01-19T12:47:59;99209.06;;;3.43;69.59
15998;BME280;8103;51.340;12.326;2023-01-19T12:50:36;99215.53;;;3.47;69.90
15998;BME280;8103;51.340;12.326;2023-01-19T12:53:16;99227.50;;;3.50;69.57
15998;BME280;8103;51.340;12.326;2023-01-19T12:55:44;99222.66;;;3.47;69.31
15998;BME280;8103;51.340;12.326;2023-01-19T12:58:16;99229.09;;;3.51;69.45
15998;BME280;8103;51.340;12.326;2023-01-19T13:00:49;99234.06;;;3.59;69.48
15998;BME280;8103;51.340;12.326;2023-01-19T13:05:59;99224.03;;;4.35;67.83
15998;BME280;8103;51.340;12.326;2023-01-19T13:08:57;99217.25;;;4.84;65.06
15998;BME280;8103;51.340;12.326;2023-01-19T13:11:24;99211.81;;;5.23;64.82
15998;BME280;8103;51.340;12.326;2023-01-19T13:21:38;99225.13;;;4.95;64.40
15998;BME280;8103;51.340;12.326;2023-01-19T13:24:21;99223.69;;;4.88;65.00
15998;BME280;8103;51.340;12.326;2023-01-19T13:29:39;99226.41;;;4.76;65.76
15998;BME280;8103;51.340;12.326;2023-01-19T13:32:16;99229.06;;;4.48;65.35
15998;BME280;8103;51.340;12.326;2023-01-19T13:34:54;99237.66;;;4.27;67.17
15998;BME280;8103;51.340;12.326;2023-01-19T13:37:37;99236.31;;;4.13;67.64
15998;BME280;8103;51.340;12.326;2023-01-19T13:40:21;99231.41;;;4.33;66.50
15998;BME280;8103;51.340;12.326;2023-01-19T13:42:52;99234.44;;;4.25;67.40
15998;BME280;8103;51.340;12.326;2023-01-19T13:45:35;99232.41;;;4.04;67.27
15998;BME280;8103;51.340;12.326;2023-01-19T13:48:15;99235.09;;;3.92;68.84
15998;BME280;8103;51.340;12.326;2023-01-19T13:51:15;99229.63;;;3.99;68.14
15998;BME280;8103;51.340;12.326;2023-01-19T13:53:57;99234.25;;;3.92;67.74
15998;BME280;8103;51.340;12.326;2023-01-19T13:56:26;99232.44;;;3.81;68.17
15998;BME280;8103;51.340;12.326;2023-01-19T13:58:59;99236.94;;;3.80;69.85
15998;BME280;8103;51.340;12.326;2023-01-19T14:01:27;99235.34;;;3.79;68.97
15998;BME280;8103;51.340;12.326;2023-01-19T14:03:58;99239.81;;;3.79;68.71
15998;BME280;8103;51.340;12.326;2023-01-19T14:06:39;99234.97;;;3.76;68.84
15998;BME280;8103;51.340;12.326;2023-01-19T14:09:17;99231.78;;;3.74;69.63